Ann Arbor, MI

2:19 PM EDT on July 30, 2016 (GMT -0400)
Walker Briar Works | | Change Station

Elev 961 ft 42.26 °N, 83.77 °W | Updated 4 minutes ago

Rain
Rain
70.2 °F
Feels Like 70.2 °F
N
0.0
Wind Variable Wind from SE
Gusts 3.1 mph

Today
High -- | Low -- °F
--% Chance of Precip.
Yesterday
High -- | Low -- °F
Precip. -- in
Pressure 29.98 in
Visibility 10.0 miles
Clouds Few 2700 ft
Overcast 5000 ft
Dew Point 70 °F
Humidity 99%
Rainfall 0.27 in
Snow Depth Not available.
6:26 AM 8:56 PM
Waning Crescent, 12% visible
METAR KARB 301753Z 05006KT 10SM FEW027 OVC050 22/19 A2999 RMK AO2 LTG DSNT E SLP152 60150 T02170194 10217 20183 50000
Pressure 29.98 in
Visibility 10.0 miles
Clouds Few 2700 ft
Overcast 5000 ft
Dew Point 70 °F
Humidity 99%
Rainfall 0.27 in
Snow Depth Not available.
6:26 AM 8:56 PM
Waning Crescent, 12% visible
METAR KARB 301753Z 05006KT 10SM FEW027 OVC050 22/19 A2999 RMK AO2 LTG DSNT E SLP152 60150 T02170194 10217 20183 50000

10-Day Weather Forecast

Almanac

Astronomy

Jul. 30, 2016 Rise Set
Actual Time
Civil Twilight
Nautical Twilight
Astronomical Twilight
Moon
Length of Visible Light
Length of Day
Tomorrow will be .
, % of the Moon is Illuminated

Today's Extremes

State Highs State Lows

Community

WunderPhotos

Upload Photos

1,928,607 photos uploaded!

WunderBlog® & News

Nearby

Air Quality

  Air Quality AQ Index Pollutant
Not available.

Snow Depth

Station Depth Elevation

Earthquake Activity

City Distance Mag. Time & Date
Minimum magnitude displayed is 2.5.

Coastal Water Temperatures

Place Temperature

Stations

Nearby Weather Stations

Station Location Temp. Windchill Dew Point Humidity Wind Precip. Elev Updated Type
                   

Watches & Warnings

Flood Warning
Issued: 2:07 PM EDT Jul. 30, 2016 – National Weather Service

... The Flash Flood Warning for Washtenaw County is cancelled...

The heavy rain has ended. Flood waters have receded. Flooding is no
longer expected to pose a threat. Please continue to heed any
remaining Road closures.

Lat... Lon 4243 8355 4209 8354 4208 8397 4207 8413
      4242 8413


Jvc